sensor_id;sensor_type;location;lat;lon;timestamp;P1;durP1;ratioP1;P2;durP2;ratioP2
40757;SDS011;26462;47.384;19.218;2024-01-16T00:00:16;3.22;;;1.35;;
40757;SDS011;26462;47.384;19.218;2024-01-16T00:02:45;6.25;;;1.70;;
40757;SDS011;26462;47.384;19.218;2024-01-16T00:05:14;7.32;;;1.98;;
40757;SDS011;26462;47.384;19.218;2024-01-16T00:07:42;6.78;;;2.38;;
40757;SDS011;26462;47.384;19.218;2024-01-16T00:10:12;6.88;;;1.95;;
40757;SDS011;26462;47.384;19.218;2024-01-16T00:12:41;4.03;;;1.48;;
40757;SDS011;26462;47.384;19.218;2024-01-16T00:15:09;7.95;;;2.15;;
40757;SDS011;26462;47.384;19.218;2024-01-16T00:17:38;4.82;;;1.73;;
40757;SDS011;26462;47.384;19.218;2024-01-16T00:20:07;7.20;;;2.30;;
40757;SDS011;26462;47.384;19.218;2024-01-16T00:22:36;5.95;;;2.17;;
40757;SDS011;26462;47.384;19.218;2024-01-16T00:25:05;4.57;;;1.67;;
40757;SDS011;26462;47.384;19.218;2024-01-16T00:27:36;3.92;;;1.50;;
40757;SDS011;26462;47.384;19.218;2024-01-16T00:30:05;5.07;;;1.67;;
40757;SDS011;26462;47.384;19.218;2024-01-16T00:32:36;5.70;;;1.48;;
40757;SDS011;26462;47.384;19.218;2024-01-16T00:35:04;5.55;;;1.40;;
40757;SDS011;26462;47.384;19.218;2024-01-16T00:37:33;3.92;;;1.10;;
40757;SDS011;26462;47.384;19.218;2024-01-16T00:40:03;5.13;;;1.45;;
40757;SDS011;26462;47.384;19.218;2024-01-16T00:42:36;5.18;;;1.08;;
40757;SDS011;26462;47.384;19.218;2024-01-16T00:45:05;5.22;;;1.58;;
40757;SDS011;26462;47.384;19.218;2024-01-16T00:47:34;7.60;;;2.15;;
40757;SDS011;26462;47.384;19.218;2024-01-16T00:50:02;3.45;;;1.20;;
40757;SDS011;26462;47.384;19.218;2024-01-16T00:52:30;6.20;;;1.20;;
40757;SDS011;26462;47.384;19.218;2024-01-16T00:54:58;4.07;;;1.63;;
40757;SDS011;26462;47.384;19.218;2024-01-16T00:57:27;3.13;;;1.30;;
40757;SDS011;26462;47.384;19.218;2024-01-16T00:59:56;4.88;;;1.55;;
40757;SDS011;26462;47.384;19.218;2024-01-16T01:02:25;3.10;;;1.15;;
40757;SDS011;26462;47.384;19.218;2024-01-16T01:04:53;3.83;;;1.52;;
40757;SDS011;26462;47.384;19.218;2024-01-16T01:07:22;2.83;;;0.95;;
40757;SDS011;26462;47.384;19.218;2024-01-16T01:09:51;5.32;;;2.05;;
40757;SDS011;26462;47.384;19.218;2024-01-16T01:12:20;4.70;;;1.42;;
40757;SDS011;26462;47.384;19.218;2024-01-16T01:14:49;7.10;;;2.17;;
40757;SDS011;26462;47.384;19.218;2024-01-16T01:17:19;6.38;;;1.77;;
40757;SDS011;26462;47.384;19.218;2024-01-16T01:19:47;5.22;;;1.38;;
40757;SDS011;26462;47.384;19.218;2024-01-16T01:22:16;7.47;;;1.67;;
40757;SDS011;26462;47.384;19.218;2024-01-16T01:24:44;2.83;;;0.90;;
40757;SDS011;26462;47.384;19.218;2024-01-16T01:27:12;4.25;;;1.55;;
40757;SDS011;26462;47.384;19.218;2024-01-16T01:29:41;2.80;;;1.23;;
40757;SDS011;26462;47.384;19.218;2024-01-16T01:32:09;4.85;;;1.27;;
40757;SDS011;26462;47.384;19.218;2024-01-16T01:34:39;5.00;;;1.30;;
40757;SDS011;26462;47.384;19.218;2024-01-16T01:37:09;6.85;;;2.30;;
40757;SDS011;26462;47.384;19.218;2024-01-16T01:39:39;7.45;;;2.40;;
40757;SDS011;26462;47.384;19.218;2024-01-16T01:42:08;8.30;;;2.08;;
40757;SDS011;26462;47.384;19.218;2024-01-16T01:44:36;8.50;;;3.55;;
40757;SDS011;26462;47.384;19.218;2024-01-16T01:47:05;6.55;;;2.22;;
40757;SDS011;26462;47.384;19.218;2024-01-16T01:49:33;7.63;;;2.17;;
40757;SDS011;26462;47.384;19.218;2024-01-16T01:52:05;6.32;;;2.05;;
40757;SDS011;26462;47.384;19.218;2024-01-16T01:54:36;10.25;;;2.63;;
40757;SDS011;26462;47.384;19.218;2024-01-16T01:57:06;6.30;;;1.75;;
40757;SDS011;26462;47.384;19.218;2024-01-16T01:59:36;4.80;;;1.55;;
40757;SDS011;26462;47.384;19.218;2024-01-16T02:02:05;6.25;;;1.20;;
40757;SDS011;26462;47.384;19.218;2024-01-16T02:04:34;3.20;;;1.15;;
40757;SDS011;26462;47.384;19.218;2024-01-16T02:07:05;6.40;;;2.33;;
40757;SDS011;26462;47.384;19.218;2024-01-16T02:09:35;3.88;;;1.70;;
40757;SDS011;26462;47.384;19.218;2024-01-16T02:12:05;3.95;;;1.58;;
40757;SDS011;26462;47.384;19.218;2024-01-16T02:14:34;7.63;;;1.98;;
40757;SDS011;26462;47.384;19.218;2024-01-16T02:17:04;2.83;;;1.08;;
40757;SDS011;26462;47.384;19.218;2024-01-16T02:19:33;3.78;;;0.95;;
40757;SDS011;26462;47.384;19.218;2024-01-16T02:22:01;4.15;;;1.40;;
40757;SDS011;26462;47.384;19.218;2024-01-16T02:24:38;3.95;;;1.33;;
40757;SDS011;26462;47.384;19.218;2024-01-16T02:27:07;4.60;;;2.28;;
40757;SDS011;26462;47.384;19.218;2024-01-16T02:29:40;5.22;;;2.00;;
40757;SDS011;26462;47.384;19.218;2024-01-16T02:32:09;4.35;;;1.30;;
40757;SDS011;26462;47.384;19.218;2024-01-16T02:34:39;6.85;;;2.45;;
40757;SDS011;26462;47.384;19.218;2024-01-16T02:37:08;6.35;;;2.05;;
40757;SDS011;26462;47.384;19.218;2024-01-16T02:39:36;5.45;;;2.38;;
40757;SDS011;26462;47.384;19.218;2024-01-16T02:44:37;5.22;;;1.77;;
40757;SDS011;26462;47.384;19.218;2024-01-16T02:47:07;4.18;;;1.55;;
40757;SDS011;26462;47.384;19.218;2024-01-16T02:49:36;5.35;;;1.25;;
40757;SDS011;26462;47.384;19.218;2024-01-16T02:52:06;4.15;;;1.48;;
40757;SDS011;26462;47.384;19.218;2024-01-16T02:54:35;6.20;;;2.08;;
40757;SDS011;26462;47.384;19.218;2024-01-16T02:57:05;4.63;;;1.60;;
40757;SDS011;26462;47.384;19.218;2024-01-16T02:59:33;6.63;;;1.92;;
40757;SDS011;26462;47.384;19.218;2024-01-16T03:02:02;6.32;;;2.15;;
40757;SDS011;26462;47.384;19.218;2024-01-16T03:04:30;6.05;;;1.73;;
40757;SDS011;26462;47.384;19.218;2024-01-16T03:06:59;5.03;;;1.95;;
40757;SDS011;26462;47.384;19.218;2024-01-16T03:09:27;7.07;;;3.03;;
40757;SDS011;26462;47.384;19.218;2024-01-16T03:11:55;5.30;;;2.00;;
40757;SDS011;26462;47.384;19.218;2024-01-16T03:14:25;7.13;;;2.35;;
40757;SDS011;26462;47.384;19.218;2024-01-16T03:16:54;7.57;;;2.80;;
40757;SDS011;26462;47.384;19.218;2024-01-16T03:19:23;6.50;;;2.35;;
40757;SDS011;26462;47.384;19.218;2024-01-16T03:21:51;6.20;;;2.58;;
40757;SDS011;26462;47.384;19.218;2024-01-16T03:24:20;7.50;;;3.08;;
40757;SDS011;26462;47.384;19.218;2024-01-16T03:26:49;6.03;;;2.55;;
40757;SDS011;26462;47.384;19.218;2024-01-16T03:29:17;7.68;;;2.88;;
40757;SDS011;26462;47.384;19.218;2024-01-16T03:31:48;7.03;;;2.28;;
40757;SDS011;26462;47.384;19.218;2024-01-16T03:34:17;7.50;;;2.15;;
40757;SDS011;26462;47.384;19.218;2024-01-16T03:36:46;7.35;;;2.47;;
40757;SDS011;26462;47.384;19.218;2024-01-16T03:39:14;6.90;;;2.85;;
40757;SDS011;26462;47.384;19.218;2024-01-16T03:41:43;8.60;;;2.90;;
40757;SDS011;26462;47.384;19.218;2024-01-16T03:44:12;6.57;;;2.47;;
40757;SDS011;26462;47.384;19.218;2024-01-16T03:46:41;6.07;;;2.55;;
40757;SDS011;26462;47.384;19.218;2024-01-16T03:49:11;5.18;;;2.03;;
40757;SDS011;26462;47.384;19.218;2024-01-16T03:51:40;7.30;;;3.08;;
40757;SDS011;26462;47.384;19.218;2024-01-16T03:54:13;9.40;;;3.85;;
40757;SDS011;26462;47.384;19.218;2024-01-16T03:56:44;8.63;;;2.92;;
40757;SDS011;26462;47.384;19.218;2024-01-16T03:59:13;8.97;;;2.70;;
40757;SDS011;26462;47.384;19.218;2024-01-16T04:01:42;6.28;;;2.75;;
40757;SDS011;26462;47.384;19.218;2024-01-16T04:04:13;7.50;;;2.80;;
40757;SDS011;26462;47.384;19.218;2024-01-16T04:06:42;9.52;;;3.28;;
40757;SDS011;26462;47.384;19.218;2024-01-16T04:09:11;5.47;;;2.47;;
40757;SDS011;26462;47.384;19.218;2024-01-16T04:11:41;9.00;;;3.20;;
40757;SDS011;26462;47.384;19.218;2024-01-16T04:14:09;5.90;;;1.95;;
40757;SDS011;26462;47.384;19.218;2024-01-16T04:16:38;6.45;;;2.33;;
40757;SDS011;26462;47.384;19.218;2024-01-16T04:19:06;7.47;;;2.55;;
40757;SDS011;26462;47.384;19.218;2024-01-16T04:21:37;9.13;;;3.55;;
40757;SDS011;26462;47.384;19.218;2024-01-16T04:24:05;6.50;;;2.17;;
40757;SDS011;26462;47.384;19.218;2024-01-16T04:26:35;7.82;;;2.95;;
40757;SDS011;26462;47.384;19.218;2024-01-16T04:29:04;9.00;;;2.15;;
40757;SDS011;26462;47.384;19.218;2024-01-16T04:31:33;5.63;;;1.92;;
40757;SDS011;26462;47.384;19.218;2024-01-16T04:34:07;7.45;;;2.97;;
40757;SDS011;26462;47.384;19.218;2024-01-16T04:36:37;6.85;;;2.38;;
40757;SDS011;26462;47.384;19.218;2024-01-16T04:39:06;7.18;;;2.88;;
40757;SDS011;26462;47.384;19.218;2024-01-16T04:41:35;4.18;;;1.83;;
40757;SDS011;26462;47.384;19.218;2024-01-16T04:44:03;21.05;;;7.32;;
40757;SDS011;26462;47.384;19.218;2024-01-16T04:46:32;59.38;;;28.33;;
40757;SDS011;26462;47.384;19.218;2024-01-16T04:49:00;16.20;;;8.20;;
40757;SDS011;26462;47.384;19.218;2024-01-16T04:51:29;10.45;;;5.93;;
40757;SDS011;26462;47.384;19.218;2024-01-16T04:53:58;11.65;;;5.15;;
40757;SDS011;26462;47.384;19.218;2024-01-16T04:56:27;9.68;;;3.50;;
40757;SDS011;26462;47.384;19.218;2024-01-16T04:58:55;8.93;;;2.83;;
40757;SDS011;26462;47.384;19.218;2024-01-16T05:01:24;5.72;;;2.25;;
40757;SDS011;26462;47.384;19.218;2024-01-16T05:03:52;6.22;;;2.35;;
40757;SDS011;26462;47.384;19.218;2024-01-16T05:06:24;6.05;;;2.40;;
40757;SDS011;26462;47.384;19.218;2024-01-16T05:08:52;6.07;;;2.53;;
40757;SDS011;26462;47.384;19.218;2024-01-16T05:11:22;5.57;;;2.25;;
40757;SDS011;26462;47.384;19.218;2024-01-16T05:13:51;8.65;;;4.13;;
40757;SDS011;26462;47.384;19.218;2024-01-16T05:16:24;7.10;;;3.38;;
40757;SDS011;26462;47.384;19.218;2024-01-16T05:18:53;4.68;;;2.03;;
40757;SDS011;26462;47.384;19.218;2024-01-16T05:21:21;5.80;;;2.00;;
40757;SDS011;26462;47.384;19.218;2024-01-16T05:23:50;7.13;;;2.85;;
40757;SDS011;26462;47.384;19.218;2024-01-16T05:26:18;6.65;;;2.90;;
40757;SDS011;26462;47.384;19.218;2024-01-16T05:28:51;11.75;;;2.42;;
40757;SDS011;26462;47.384;19.218;2024-01-16T05:31:19;8.60;;;2.70;;
40757;SDS011;26462;47.384;19.218;2024-01-16T05:33:55;5.38;;;3.08;;
40757;SDS011;26462;47.384;19.218;2024-01-16T05:36:26;6.72;;;3.13;;
40757;SDS011;26462;47.384;19.218;2024-01-16T05:38:54;14.57;;;6.32;;
40757;SDS011;26462;47.384;19.218;2024-01-16T05:41:34;23.38;;;7.32;;
40757;SDS011;26462;47.384;19.218;2024-01-16T05:44:05;9.15;;;5.80;;
40757;SDS011;26462;47.384;19.218;2024-01-16T05:46:40;9.75;;;4.07;;
40757;SDS011;26462;47.384;19.218;2024-01-16T05:49:09;8.70;;;3.58;;
40757;SDS011;26462;47.384;19.218;2024-01-16T05:51:38;2.85;;;1.38;;
40757;SDS011;26462;47.384;19.218;2024-01-16T05:54:06;5.55;;;2.92;;
40757;SDS011;26462;47.384;19.218;2024-01-16T05:56:34;7.20;;;3.63;;
40757;SDS011;26462;47.384;19.218;2024-01-16T05:59:05;9.57;;;5.65;;
40757;SDS011;26462;47.384;19.218;2024-01-16T06:01:34;12.30;;;7.25;;
40757;SDS011;26462;47.384;19.218;2024-01-16T06:04:02;10.40;;;5.38;;
40757;SDS011;26462;47.384;19.218;2024-01-16T06:06:31;5.90;;;2.78;;
40757;SDS011;26462;47.384;19.218;2024-01-16T06:09:00;9.45;;;3.83;;
40757;SDS011;26462;47.384;19.218;2024-01-16T06:11:31;18.00;;;8.70;;
40757;SDS011;26462;47.384;19.218;2024-01-16T06:14:01;102.55;;;31.27;;
40757;SDS011;26462;47.384;19.218;2024-01-16T06:16:31;234.77;;;70.68;;
40757;SDS011;26462;47.384;19.218;2024-01-16T06:18:59;80.95;;;31.85;;
40757;SDS011;26462;47.384;19.218;2024-01-16T06:21:28;21.25;;;11.27;;
40757;SDS011;26462;47.384;19.218;2024-01-16T06:23:56;16.17;;;8.82;;
40757;SDS011;26462;47.384;19.218;2024-01-16T06:26:25;15.90;;;7.57;;
40757;SDS011;26462;47.384;19.218;2024-01-16T06:28:53;4.78;;;1.95;;
40757;SDS011;26462;47.384;19.218;2024-01-16T06:31:22;6.32;;;1.58;;
40757;SDS011;26462;47.384;19.218;2024-01-16T06:33:54;7.07;;;1.73;;
40757;SDS011;26462;47.384;19.218;2024-01-16T06:36:23;4.82;;;1.45;;
40757;SDS011;26462;47.384;19.218;2024-01-16T06:38:52;7.22;;;2.80;;
40757;SDS011;26462;47.384;19.218;2024-01-16T06:41:22;4.45;;;2.00;;
40757;SDS011;26462;47.384;19.218;2024-01-16T06:43:54;7.85;;;2.22;;
40757;SDS011;26462;47.384;19.218;2024-01-16T06:46:23;8.98;;;4.05;;
40757;SDS011;26462;47.384;19.218;2024-01-16T06:48:52;6.72;;;2.75;;
40757;SDS011;26462;47.384;19.218;2024-01-16T06:51:23;4.97;;;1.88;;
40757;SDS011;26462;47.384;19.218;2024-01-16T06:53:52;11.02;;;3.00;;
40757;SDS011;26462;47.384;19.218;2024-01-16T06:56:22;5.03;;;2.33;;
40757;SDS011;26462;47.384;19.218;2024-01-16T06:58:51;7.40;;;2.67;;
40757;SDS011;26462;47.384;19.218;2024-01-16T07:01:20;6.47;;;2.42;;
40757;SDS011;26462;47.384;19.218;2024-01-16T07:03:49;5.75;;;2.80;;
40757;SDS011;26462;47.384;19.218;2024-01-16T07:06:19;5.43;;;2.67;;
40757;SDS011;26462;47.384;19.218;2024-01-16T07:08:50;6.72;;;2.28;;
40757;SDS011;26462;47.384;19.218;2024-01-16T07:11:19;5.57;;;2.70;;
40757;SDS011;26462;47.384;19.218;2024-01-16T07:13:50;6.80;;;2.63;;
40757;SDS011;26462;47.384;19.218;2024-01-16T07:16:19;6.95;;;2.88;;
40757;SDS011;26462;47.384;19.218;2024-01-16T07:18:48;5.72;;;2.25;;
40757;SDS011;26462;47.384;19.218;2024-01-16T07:21:17;7.75;;;3.22;;
40757;SDS011;26462;47.384;19.218;2024-01-16T07:23:47;8.18;;;3.20;;
40757;SDS011;26462;47.384;19.218;2024-01-16T07:26:17;9.57;;;3.83;;
40757;SDS011;26462;47.384;19.218;2024-01-16T07:28:46;10.52;;;3.35;;
40757;SDS011;26462;47.384;19.218;2024-01-16T07:31:15;8.63;;;3.92;;
40757;SDS011;26462;47.384;19.218;2024-01-16T07:33:44;5.38;;;2.42;;
40757;SDS011;26462;47.384;19.218;2024-01-16T07:36:13;7.22;;;2.83;;
40757;SDS011;26462;47.384;19.218;2024-01-16T07:38:42;4.40;;;2.17;;
40757;SDS011;26462;47.384;19.218;2024-01-16T07:41:10;5.93;;;2.17;;
40757;SDS011;26462;47.384;19.218;2024-01-16T07:43:41;7.20;;;2.50;;
40757;SDS011;26462;47.384;19.218;2024-01-16T07:46:13;5.53;;;2.10;;
40757;SDS011;26462;47.384;19.218;2024-01-16T07:48:43;5.55;;;2.60;;
40757;SDS011;26462;47.384;19.218;2024-01-16T07:51:12;7.13;;;2.50;;
40757;SDS011;26462;47.384;19.218;2024-01-16T07:53:40;14.27;;;4.07;;
40757;SDS011;26462;47.384;19.218;2024-01-16T07:56:09;9.45;;;2.83;;
40757;SDS011;26462;47.384;19.218;2024-01-16T07:58:38;4.57;;;1.92;;
40757;SDS011;26462;47.384;19.218;2024-01-16T08:01:07;5.93;;;2.15;;
40757;SDS011;26462;47.384;19.218;2024-01-16T08:03:36;4.45;;;1.90;;
40757;SDS011;26462;47.384;19.218;2024-01-16T08:06:05;3.90;;;1.23;;
40757;SDS011;26462;47.384;19.218;2024-01-16T08:08:37;5.93;;;2.25;;
40757;SDS011;26462;47.384;19.218;2024-01-16T08:11:06;4.88;;;1.80;;
40757;SDS011;26462;47.384;19.218;2024-01-16T08:13:37;4.80;;;1.60;;
40757;SDS011;26462;47.384;19.218;2024-01-16T08:16:07;9.07;;;3.00;;
40757;SDS011;26462;47.384;19.218;2024-01-16T08:18:38;9.50;;;2.73;;
40757;SDS011;26462;47.384;19.218;2024-01-16T08:21:07;7.80;;;1.50;;
40757;SDS011;26462;47.384;19.218;2024-01-16T08:23:35;4.63;;;1.92;;
40757;SDS011;26462;47.384;19.218;2024-01-16T08:26:04;4.75;;;1.70;;
40757;SDS011;26462;47.384;19.218;2024-01-16T08:28:33;3.30;;;1.67;;
40757;SDS011;26462;47.384;19.218;2024-01-16T08:31:03;9.25;;;2.63;;
40757;SDS011;26462;47.384;19.218;2024-01-16T08:33:33;4.60;;;1.52;;
40757;SDS011;26462;47.384;19.218;2024-01-16T08:36:12;3.65;;;1.40;;
40757;SDS011;26462;47.384;19.218;2024-01-16T08:38:41;5.93;;;2.03;;
40757;SDS011;26462;47.384;19.218;2024-01-16T08:41:09;6.10;;;2.38;;
40757;SDS011;26462;47.384;19.218;2024-01-16T08:43:38;9.68;;;4.03;;
40757;SDS011;26462;47.384;19.218;2024-01-16T08:46:08;8.10;;;3.45;;
40757;SDS011;26462;47.384;19.218;2024-01-16T08:48:43;5.20;;;2.00;;
40757;SDS011;26462;47.384;19.218;2024-01-16T08:51:12;8.90;;;2.42;;
40757;SDS011;26462;47.384;19.218;2024-01-16T08:53:44;5.35;;;1.88;;
40757;SDS011;26462;47.384;19.218;2024-01-16T08:56:16;4.63;;;1.45;;
40757;SDS011;26462;47.384;19.218;2024-01-16T09:01:16;3.85;;;1.65;;
40757;SDS011;26462;47.384;19.218;2024-01-16T09:03:49;8.90;;;2.67;;
40757;SDS011;26462;47.384;19.218;2024-01-16T09:06:18;6.18;;;1.48;;
40757;SDS011;26462;47.384;19.218;2024-01-16T09:08:47;4.50;;;1.50;;
40757;SDS011;26462;47.384;19.218;2024-01-16T09:11:15;4.57;;;1.63;;
40757;SDS011;26462;47.384;19.218;2024-01-16T09:13:46;5.75;;;1.52;;
40757;SDS011;26462;47.384;19.218;2024-01-16T09:16:14;8.02;;;1.58;;
40757;SDS011;26462;47.384;19.218;2024-01-16T09:18:43;5.03;;;2.15;;
40757;SDS011;26462;47.384;19.218;2024-01-16T09:21:15;3.53;;;1.08;;
40757;SDS011;26462;47.384;19.218;2024-01-16T09:23:46;3.88;;;1.48;;
40757;SDS011;26462;47.384;19.218;2024-01-16T09:26:15;4.93;;;2.00;;
40757;SDS011;26462;47.384;19.218;2024-01-16T09:28:48;2.97;;;1.00;;
40757;SDS011;26462;47.384;19.218;2024-01-16T09:31:18;3.92;;;1.17;;
40757;SDS011;26462;47.384;19.218;2024-01-16T09:33:46;3.30;;;0.82;;
40757;SDS011;26462;47.384;19.218;2024-01-16T09:36:20;4.00;;;1.30;;
40757;SDS011;26462;47.384;19.218;2024-01-16T09:38:49;6.07;;;1.55;;
40757;SDS011;26462;47.384;19.218;2024-01-16T09:41:17;5.28;;;1.40;;
40757;SDS011;26462;47.384;19.218;2024-01-16T09:43:47;4.68;;;1.00;;
40757;SDS011;26462;47.384;19.218;2024-01-16T09:46:16;2.47;;;0.90;;
40757;SDS011;26462;47.384;19.218;2024-01-16T09:48:48;4.88;;;1.17;;
40757;SDS011;26462;47.384;19.218;2024-01-16T09:51:21;3.22;;;1.17;;
40757;SDS011;26462;47.384;19.218;2024-01-16T09:53:53;4.38;;;0.75;;
40757;SDS011;26462;47.384;19.218;2024-01-16T09:56:22;2.60;;;0.70;;
40757;SDS011;26462;47.384;19.218;2024-01-16T09:58:54;3.35;;;0.98;;
40757;SDS011;26462;47.384;19.218;2024-01-16T10:01:28;3.22;;;1.00;;
40757;SDS011;26462;47.384;19.218;2024-01-16T10:04:01;4.78;;;1.13;;
40757;SDS011;26462;47.384;19.218;2024-01-16T10:06:31;5.55;;;2.00;;
40757;SDS011;26462;47.384;19.218;2024-01-16T10:09:03;10.13;;;3.25;;
40757;SDS011;26462;47.384;19.218;2024-01-16T10:11:33;3.92;;;1.73;;
40757;SDS011;26462;47.384;19.218;2024-01-16T10:14:27;4.43;;;1.90;;
40757;SDS011;26462;47.384;19.218;2024-01-16T10:16:58;7.88;;;2.28;;
40757;SDS011;26462;47.384;19.218;2024-01-16T10:19:32;7.20;;;1.88;;
40757;SDS011;26462;47.384;19.218;2024-01-16T10:22:19;2.67;;;1.13;;
40757;SDS011;26462;47.384;19.218;2024-01-16T10:25:00;6.65;;;1.50;;
40757;SDS011;26462;47.384;19.218;2024-01-16T10:27:33;6.07;;;2.30;;
40757;SDS011;26462;47.384;19.218;2024-01-16T10:30:02;4.60;;;1.38;;
40757;SDS011;26462;47.384;19.218;2024-01-16T10:32:33;6.93;;;1.90;;
40757;SDS011;26462;47.384;19.218;2024-01-16T10:35:04;4.67;;;1.87;;
40757;SDS011;26462;47.384;19.218;2024-01-16T10:37:42;5.80;;;1.92;;
40757;SDS011;26462;47.384;19.218;2024-01-16T10:40:14;5.40;;;1.77;;
40757;SDS011;26462;47.384;19.218;2024-01-16T10:42:43;7.18;;;2.25;;
40757;SDS011;26462;47.384;19.218;2024-01-16T10:45:16;23.10;;;7.78;;
40757;SDS011;26462;47.384;19.218;2024-01-16T10:47:46;9.13;;;3.53;;
40757;SDS011;26462;47.384;19.218;2024-01-16T10:50:15;6.97;;;2.35;;
40757;SDS011;26462;47.384;19.218;2024-01-16T10:52:47;6.78;;;2.35;;
40757;SDS011;26462;47.384;19.218;2024-01-16T10:55:19;7.00;;;1.93;;
40757;SDS011;26462;47.384;19.218;2024-01-16T10:57:50;6.05;;;1.85;;
40757;SDS011;26462;47.384;19.218;2024-01-16T11:00:20;5.50;;;2.08;;
40757;SDS011;26462;47.384;19.218;2024-01-16T11:02:50;3.00;;;0.93;;
40757;SDS011;26462;47.384;19.218;2024-01-16T11:05:35;2.90;;;0.55;;
40757;SDS011;26462;47.384;19.218;2024-01-16T11:08:08;4.30;;;0.68;;
40757;SDS011;26462;47.384;19.218;2024-01-16T11:10:37;3.55;;;0.60;;
40757;SDS011;26462;47.384;19.218;2024-01-16T11:13:06;2.28;;;0.60;;
40757;SDS011;26462;47.384;19.218;2024-01-16T11:15:36;1.95;;;0.55;;
40757;SDS011;26462;47.384;19.218;2024-01-16T11:18:06;2.00;;;0.70;;
40757;SDS011;26462;47.384;19.218;2024-01-16T11:20:38;4.32;;;1.02;;
40757;SDS011;26462;47.384;19.218;2024-01-16T11:23:30;3.55;;;1.05;;
40757;SDS011;26462;47.384;19.218;2024-01-16T11:25:59;3.50;;;0.85;;
40757;SDS011;26462;47.384;19.218;2024-01-16T11:28:28;3.00;;;0.80;;
40757;SDS011;26462;47.384;19.218;2024-01-16T11:30:58;4.55;;;1.60;;
40757;SDS011;26462;47.384;19.218;2024-01-16T11:34:01;4.53;;;1.60;;
40757;SDS011;26462;47.384;19.218;2024-01-16T11:36:51;6.40;;;2.38;;
40757;SDS011;26462;47.384;19.218;2024-01-16T11:39:24;3.25;;;1.17;;
40757;SDS011;26462;47.384;19.218;2024-01-16T11:41:54;5.18;;;1.85;;
40757;SDS011;26462;47.384;19.218;2024-01-16T11:47:16;5.05;;;1.80;;
40757;SDS011;26462;47.384;19.218;2024-01-16T11:49:45;3.10;;;1.20;;
40757;SDS011;26462;47.384;19.218;2024-01-16T11:52:15;4.80;;;1.85;;
40757;SDS011;26462;47.384;19.218;2024-01-16T11:55:28;5.40;;;1.60;;
40757;SDS011;26462;47.384;19.218;2024-01-16T11:58:05;7.40;;;1.92;;
40757;SDS011;26462;47.384;19.218;2024-01-16T12:01:04;5.18;;;0.70;;
40757;SDS011;26462;47.384;19.218;2024-01-16T12:03:34;4.43;;;1.40;;
40757;SDS011;26462;47.384;19.218;2024-01-16T12:06:05;3.83;;;1.30;;
40757;SDS011;26462;47.384;19.218;2024-01-16T12:08:37;6.15;;;2.22;;
40757;SDS011;26462;47.384;19.218;2024-01-16T12:11:12;6.93;;;2.05;;
40757;SDS011;26462;47.384;19.218;2024-01-16T12:14:03;11.23;;;3.42;;
40757;SDS011;26462;47.384;19.218;2024-01-16T12:16:33;11.55;;;3.75;;
40757;SDS011;26462;47.384;19.218;2024-01-16T12:19:10;4.20;;;1.80;;
40757;SDS011;26462;47.384;19.218;2024-01-16T12:21:51;13.68;;;3.17;;
40757;SDS011;26462;47.384;19.218;2024-01-16T12:24:20;13.82;;;4.57;;
40757;SDS011;26462;47.384;19.218;2024-01-16T12:26:56;8.18;;;2.28;;
40757;SDS011;26462;47.384;19.218;2024-01-16T12:29:32;3.92;;;1.35;;
40757;SDS011;26462;47.384;19.218;2024-01-16T12:32:31;6.13;;;2.17;;
40757;SDS011;26462;47.384;19.218;2024-01-16T12:35:20;2.97;;;0.50;;
40757;SDS011;26462;47.384;19.218;2024-01-16T12:37:59;4.32;;;1.38;;
40757;SDS011;26462;47.384;19.218;2024-01-16T12:40:29;3.90;;;0.90;;
40757;SDS011;26462;47.384;19.218;2024-01-16T12:43:01;2.80;;;0.98;;
40757;SDS011;26462;47.384;19.218;2024-01-16T12:45:31;6.50;;;1.60;;
40757;SDS011;26462;47.384;19.218;2024-01-16T12:48:04;4.32;;;1.52;;
40757;SDS011;26462;47.384;19.218;2024-01-16T12:50:35;2.78;;;0.90;;
40757;SDS011;26462;47.384;19.218;2024-01-16T12:53:15;1.77;;;0.88;;
40757;SDS011;26462;47.384;19.218;2024-01-16T12:55:46;6.15;;;1.20;;
40757;SDS011;26462;47.384;19.218;2024-01-16T12:58:31;4.20;;;1.10;;
40757;SDS011;26462;47.384;19.218;2024-01-16T13:01:21;3.40;;;0.63;;
40757;SDS011;26462;47.384;19.218;2024-01-16T13:04:05;10.00;;;2.45;;
40757;SDS011;26462;47.384;19.218;2024-01-16T13:06:39;2.42;;;0.82;;
40757;SDS011;26462;47.384;19.218;2024-01-16T13:09:10;4.85;;;0.85;;
40757;SDS011;26462;47.384;19.218;2024-01-16T13:11:48;4.72;;;1.00;;
40757;SDS011;26462;47.384;19.218;2024-01-16T13:14:20;3.47;;;0.55;;
40757;SDS011;26462;47.384;19.218;2024-01-16T13:16:51;7.30;;;2.25;;
40757;SDS011;26462;47.384;19.218;2024-01-16T13:19:22;7.18;;;2.35;;
40757;SDS011;26462;47.384;19.218;2024-01-16T13:22:00;7.45;;;1.70;;
40757;SDS011;26462;47.384;19.218;2024-01-16T13:24:29;3.50;;;1.00;;
40757;SDS011;26462;47.384;19.218;2024-01-16T13:26:59;5.57;;;1.40;;
40757;SDS011;26462;47.384;19.218;2024-01-16T13:29:33;8.85;;;2.17;;
40757;SDS011;26462;47.384;19.218;2024-01-16T13:32:06;6.10;;;1.98;;
40757;SDS011;26462;47.384;19.218;2024-01-16T13:34:35;6.47;;;1.30;;
40757;SDS011;26462;47.384;19.218;2024-01-16T13:37:07;4.90;;;1.20;;
40757;SDS011;26462;47.384;19.218;2024-01-16T13:39:42;3.47;;;1.17;;
40757;SDS011;26462;47.384;19.218;2024-01-16T13:42:13;2.33;;;0.60;;
40757;SDS011;26462;47.384;19.218;2024-01-16T13:45:19;2.53;;;0.70;;
40757;SDS011;26462;47.384;19.218;2024-01-16T13:47:54;2.00;;;0.50;;
40757;SDS011;26462;47.384;19.218;2024-01-16T13:50:32;3.15;;;0.55;;
40757;SDS011;26462;47.384;19.218;2024-01-16T13:53:02;2.15;;;0.30;;
40757;SDS011;26462;47.384;19.218;2024-01-16T13:55:30;2.55;;;0.40;;
40757;SDS011;26462;47.384;19.218;2024-01-16T13:58:01;0.80;;;0.20;;
40757;SDS011;26462;47.384;19.218;2024-01-16T14:00:40;2.50;;;0.80;;
40757;SDS011;26462;47.384;19.218;2024-01-16T14:03:10;1.60;;;0.20;;
40757;SDS011;26462;47.384;19.218;2024-01-16T14:05:39;4.35;;;0.60;;
40757;SDS011;26462;47.384;19.218;2024-01-16T14:08:09;2.00;;;0.35;;
40757;SDS011;26462;47.384;19.218;2024-01-16T14:10:39;2.25;;;0.38;;
40757;SDS011;26462;47.384;19.218;2024-01-16T14:13:08;1.20;;;0.20;;
40757;SDS011;26462;47.384;19.218;2024-01-16T14:15:36;1.10;;;0.30;;
40757;SDS011;26462;47.384;19.218;2024-01-16T14:18:07;1.88;;;0.20;;
40757;SDS011;26462;47.384;19.218;2024-01-16T14:20:36;2.72;;;0.50;;
40757;SDS011;26462;47.384;19.218;2024-01-16T14:23:05;3.88;;;0.70;;
40757;SDS011;26462;47.384;19.218;2024-01-16T14:25:34;1.38;;;0.30;;
40757;SDS011;26462;47.384;19.218;2024-01-16T14:28:04;1.00;;;0.20;;
40757;SDS011;26462;47.384;19.218;2024-01-16T14:30:49;1.98;;;0.25;;
40757;SDS011;26462;47.384;19.218;2024-01-16T14:33:21;0.52;;;0.10;;
40757;SDS011;26462;47.384;19.218;2024-01-16T14:35:59;1.23;;;0.30;;
40757;SDS011;26462;47.384;19.218;2024-01-16T14:38:38;4.50;;;0.68;;
40757;SDS011;26462;47.384;19.218;2024-01-16T14:41:11;3.47;;;1.20;;
40757;SDS011;26462;47.384;19.218;2024-01-16T14:43:51;3.75;;;1.20;;
40757;SDS011;26462;47.384;19.218;2024-01-16T14:46:30;3.25;;;0.82;;
40757;SDS011;26462;47.384;19.218;2024-01-16T14:49:13;3.45;;;1.10;;
40757;SDS011;26462;47.384;19.218;2024-01-16T14:51:49;5.72;;;1.67;;
40757;SDS011;26462;47.384;19.218;2024-01-16T14:54:18;20.15;;;8.13;;
40757;SDS011;26462;47.384;19.218;2024-01-16T14:56:47;9.25;;;4.18;;
40757;SDS011;26462;47.384;19.218;2024-01-16T14:59:16;4.35;;;1.10;;
40757;SDS011;26462;47.384;19.218;2024-01-16T15:01:44;4.18;;;1.00;;
40757;SDS011;26462;47.384;19.218;2024-01-16T15:04:14;15.05;;;4.88;;